sensor_id;sensor_type;location;lat;lon;timestamp;temperature;humidity
20672;DHT22;10495;50.922;4.760;2023-05-18T00:02:15;10.00;64.90
20672;DHT22;10495;50.922;4.760;2023-05-18T00:04:41;9.90;65.30
20672;DHT22;10495;50.922;4.760;2023-05-18T00:07:07;9.90;65.50
20672;DHT22;10495;50.922;4.760;2023-05-18T00:09:34;9.90;65.30
20672;DHT22;10495;50.922;4.760;2023-05-18T00:12:01;9.90;65.50
20672;DHT22;10495;50.922;4.760;2023-05-18T00:14:27;9.80;65.90
20672;DHT22;10495;50.922;4.760;2023-05-18T00:16:53;9.90;66.00
20672;DHT22;10495;50.922;4.760;2023-05-18T00:19:20;9.80;66.20
20672;DHT22;10495;50.922;4.760;2023-05-18T00:21:47;9.80;66.30
20672;DHT22;10495;50.922;4.760;2023-05-18T00:24:13;9.70;66.70
20672;DHT22;10495;50.922;4.760;2023-05-18T00:26:40;9.70;66.70
20672;DHT22;10495;50.922;4.760;2023-05-18T00:29:07;9.60;67.20
20672;DHT22;10495;50.922;4.760;2023-05-18T00:31:33;9.60;67.20
20672;DHT22;10495;50.922;4.760;2023-05-18T00:34:11;9.50;67.10
20672;DHT22;10495;50.922;4.760;2023-05-18T00:36:38;9.60;67.30
20672;DHT22;10495;50.922;4.760;2023-05-18T00:39:05;9.50;67.40
20672;DHT22;10495;50.922;4.760;2023-05-18T00:41:31;9.40;68.40
20672;DHT22;10495;50.922;4.760;2023-05-18T00:43:58;9.40;68.70
20672;DHT22;10495;50.922;4.760;2023-05-18T00:46:24;9.40;68.70
20672;DHT22;10495;50.922;4.760;2023-05-18T00:48:51;9.40;69.20
20672;DHT22;10495;50.922;4.760;2023-05-18T00:51:22;9.40;69.20
20672;DHT22;10495;50.922;4.760;2023-05-18T00:53:48;9.40;69.00
20672;DHT22;10495;50.922;4.760;2023-05-18T00:56:15;9.40;69.80
20672;DHT22;10495;50.922;4.760;2023-05-18T00:58:41;9.30;70.60
20672;DHT22;10495;50.922;4.760;2023-05-18T01:01:07;9.30;70.20
20672;DHT22;10495;50.922;4.760;2023-05-18T01:03:37;9.30;70.60
20672;DHT22;10495;50.922;4.760;2023-05-18T01:06:07;9.30;70.70
20672;DHT22;10495;50.922;4.760;2023-05-18T01:08:34;9.30;70.90
20672;DHT22;10495;50.922;4.760;2023-05-18T01:13:42;9.40;70.50
20672;DHT22;10495;50.922;4.760;2023-05-18T01:16:11;9.30;70.90
20672;DHT22;10495;50.922;4.760;2023-05-18T01:18:46;9.30;70.60
20672;DHT22;10495;50.922;4.760;2023-05-18T01:21:39;9.30;70.70
20672;DHT22;10495;50.922;4.760;2023-05-18T01:24:37;9.40;70.60
20672;DHT22;10495;50.922;4.760;2023-05-18T01:27:07;9.40;70.30
20672;DHT22;10495;50.922;4.760;2023-05-18T01:29:33;9.30;70.30
20672;DHT22;10495;50.922;4.760;2023-05-18T01:31:59;9.30;70.50
20672;DHT22;10495;50.922;4.760;2023-05-18T01:34:25;9.20;70.90
20672;DHT22;10495;50.922;4.760;2023-05-18T01:36:51;9.20;70.80
20672;DHT22;10495;50.922;4.760;2023-05-18T01:39:17;9.20;70.90
20672;DHT22;10495;50.922;4.760;2023-05-18T01:41:57;9.20;71.30
20672;DHT22;10495;50.922;4.760;2023-05-18T01:44:31;9.20;71.70
20672;DHT22;10495;50.922;4.760;2023-05-18T01:47:14;9.10;71.20
20672;DHT22;10495;50.922;4.760;2023-05-18T01:49:56;9.10;71.90
20672;DHT22;10495;50.922;4.760;2023-05-18T01:53:07;9.10;71.90
20672;DHT22;10495;50.922;4.760;2023-05-18T01:55:35;9.00;73.10
20672;DHT22;10495;50.922;4.760;2023-05-18T01:58:01;8.90;72.80
20672;DHT22;10495;50.922;4.760;2023-05-18T02:00:28;8.90;72.80
20672;DHT22;10495;50.922;4.760;2023-05-18T02:02:53;8.90;72.90
20672;DHT22;10495;50.922;4.760;2023-05-18T02:05:19;8.90;73.30
20672;DHT22;10495;50.922;4.760;2023-05-18T02:07:45;8.90;73.10
20672;DHT22;10495;50.922;4.760;2023-05-18T02:10:12;8.90;73.50
20672;DHT22;10495;50.922;4.760;2023-05-18T02:12:37;8.90;73.60
20672;DHT22;10495;50.922;4.760;2023-05-18T02:15:04;8.90;73.60
20672;DHT22;10495;50.922;4.760;2023-05-18T02:17:34;8.90;73.60
20672;DHT22;10495;50.922;4.760;2023-05-18T02:20:03;8.90;73.40
20672;DHT22;10495;50.922;4.760;2023-05-18T02:22:32;8.90;73.00
20672;DHT22;10495;50.922;4.760;2023-05-18T02:24:58;8.90;73.40
20672;DHT22;10495;50.922;4.760;2023-05-18T02:27:23;8.90;73.70
20672;DHT22;10495;50.922;4.760;2023-05-18T02:29:49;8.90;73.50
20672;DHT22;10495;50.922;4.760;2023-05-18T02:32:16;8.90;73.50
20672;DHT22;10495;50.922;4.760;2023-05-18T02:34:42;8.90;73.70
20672;DHT22;10495;50.922;4.760;2023-05-18T02:37:07;8.80;73.90
20672;DHT22;10495;50.922;4.760;2023-05-18T02:39:33;8.80;73.90
20672;DHT22;10495;50.922;4.760;2023-05-18T02:41:59;8.80;73.80
20672;DHT22;10495;50.922;4.760;2023-05-18T02:44:24;8.70;73.80
20672;DHT22;10495;50.922;4.760;2023-05-18T02:46:50;8.70;74.20
20672;DHT22;10495;50.922;4.760;2023-05-18T02:49:16;8.60;73.90
20672;DHT22;10495;50.922;4.760;2023-05-18T02:51:42;8.60;74.20
20672;DHT22;10495;50.922;4.760;2023-05-18T02:54:07;8.60;74.40
20672;DHT22;10495;50.922;4.760;2023-05-18T02:56:33;8.60;74.40
20672;DHT22;10495;50.922;4.760;2023-05-18T02:58:58;8.60;74.60
20672;DHT22;10495;50.922;4.760;2023-05-18T03:01:25;8.60;74.60
20672;DHT22;10495;50.922;4.760;2023-05-18T03:03:55;8.50;74.90
20672;DHT22;10495;50.922;4.760;2023-05-18T03:06:24;8.50;74.70
20672;DHT22;10495;50.922;4.760;2023-05-18T03:08:51;8.50;75.10
20672;DHT22;10495;50.922;4.760;2023-05-18T03:11:19;8.40;75.50
20672;DHT22;10495;50.922;4.760;2023-05-18T03:13:46;8.40;75.60
20672;DHT22;10495;50.922;4.760;2023-05-18T03:16:12;8.40;75.40
20672;DHT22;10495;50.922;4.760;2023-05-18T03:18:38;8.40;75.40
20672;DHT22;10495;50.922;4.760;2023-05-18T03:21:04;8.40;75.60
20672;DHT22;10495;50.922;4.760;2023-05-18T03:23:30;8.40;75.20
20672;DHT22;10495;50.922;4.760;2023-05-18T03:25:56;8.40;75.60
20672;DHT22;10495;50.922;4.760;2023-05-18T03:28:21;8.40;75.80
20672;DHT22;10495;50.922;4.760;2023-05-18T03:30:47;8.40;75.40
20672;DHT22;10495;50.922;4.760;2023-05-18T03:33:13;8.30;75.80
20672;DHT22;10495;50.922;4.760;2023-05-18T03:35:39;8.30;76.20
20672;DHT22;10495;50.922;4.760;2023-05-18T03:38:07;8.20;75.90
20672;DHT22;10495;50.922;4.760;2023-05-18T03:40:33;8.30;75.70
20672;DHT22;10495;50.922;4.760;2023-05-18T03:42:59;8.20;75.50
20672;DHT22;10495;50.922;4.760;2023-05-18T03:45:24;8.20;75.80
20672;DHT22;10495;50.922;4.760;2023-05-18T03:47:50;8.10;75.70
20672;DHT22;10495;50.922;4.760;2023-05-18T03:50:16;8.10;75.80
20672;DHT22;10495;50.922;4.760;2023-05-18T03:52:42;8.10;76.10
20672;DHT22;10495;50.922;4.760;2023-05-18T03:55:09;8.10;76.30
20672;DHT22;10495;50.922;4.760;2023-05-18T03:57:36;8.00;76.70
20672;DHT22;10495;50.922;4.760;2023-05-18T04:00:04;8.00;76.70
20672;DHT22;10495;50.922;4.760;2023-05-18T04:02:33;8.00;77.10
20672;DHT22;10495;50.922;4.760;2023-05-18T04:04:59;8.10;76.90
20672;DHT22;10495;50.922;4.760;2023-05-18T04:07:25;8.10;76.60
20672;DHT22;10495;50.922;4.760;2023-05-18T04:09:52;8.00;76.60
20672;DHT22;10495;50.922;4.760;2023-05-18T04:12:18;8.00;77.00
20672;DHT22;10495;50.922;4.760;2023-05-18T04:14:44;8.00;76.70
20672;DHT22;10495;50.922;4.760;2023-05-18T04:17:19;7.90;76.70
20672;DHT22;10495;50.922;4.760;2023-05-18T04:19:48;7.90;77.10
20672;DHT22;10495;50.922;4.760;2023-05-18T04:22:15;7.90;76.80
20672;DHT22;10495;50.922;4.760;2023-05-18T04:24:41;7.90;77.10
20672;DHT22;10495;50.922;4.760;2023-05-18T04:27:08;7.80;77.40
20672;DHT22;10495;50.922;4.760;2023-05-18T04:29:34;7.80;77.50
20672;DHT22;10495;50.922;4.760;2023-05-18T04:32:06;7.80;77.60
20672;DHT22;10495;50.922;4.760;2023-05-18T04:34:33;7.80;77.90
20672;DHT22;10495;50.922;4.760;2023-05-18T04:37:02;7.80;78.10
20672;DHT22;10495;50.922;4.760;2023-05-18T04:39:33;7.90;78.60
20672;DHT22;10495;50.922;4.760;2023-05-18T04:41:59;7.90;78.50
20672;DHT22;10495;50.922;4.760;2023-05-18T04:44:29;8.00;78.40
20672;DHT22;10495;50.922;4.760;2023-05-18T04:46:55;8.10;78.60
20672;DHT22;10495;50.922;4.760;2023-05-18T04:49:21;8.10;78.90
20672;DHT22;10495;50.922;4.760;2023-05-18T04:51:52;8.20;78.90
20672;DHT22;10495;50.922;4.760;2023-05-18T04:54:28;8.30;79.20
20672;DHT22;10495;50.922;4.760;2023-05-18T04:56:57;8.30;79.10
20672;DHT22;10495;50.922;4.760;2023-05-18T04:59:23;8.40;79.10
20672;DHT22;10495;50.922;4.760;2023-05-18T05:01:51;8.50;79.20
20672;DHT22;10495;50.922;4.760;2023-05-18T05:04:22;8.60;80.00
20672;DHT22;10495;50.922;4.760;2023-05-18T05:06:48;8.60;79.80
20672;DHT22;10495;50.922;4.760;2023-05-18T05:09:14;8.70;79.80
20672;DHT22;10495;50.922;4.760;2023-05-18T05:11:40;8.80;79.50
20672;DHT22;10495;50.922;4.760;2023-05-18T05:14:06;8.90;78.90
20672;DHT22;10495;50.922;4.760;2023-05-18T05:16:32;8.90;78.30
20672;DHT22;10495;50.922;4.760;2023-05-18T05:18:58;9.00;78.70
20672;DHT22;10495;50.922;4.760;2023-05-18T05:21:24;9.20;78.20
20672;DHT22;10495;50.922;4.760;2023-05-18T05:23:50;9.40;77.70
20672;DHT22;10495;50.922;4.760;2023-05-18T05:26:16;9.40;77.30
20672;DHT22;10495;50.922;4.760;2023-05-18T05:28:42;9.60;77.30
20672;DHT22;10495;50.922;4.760;2023-05-18T05:31:08;9.60;77.00
20672;DHT22;10495;50.922;4.760;2023-05-18T05:33:34;9.60;76.70
20672;DHT22;10495;50.922;4.760;2023-05-18T05:35:59;9.80;77.00
20672;DHT22;10495;50.922;4.760;2023-05-18T05:38:25;9.80;76.30
20672;DHT22;10495;50.922;4.760;2023-05-18T05:40:51;9.90;75.90
20672;DHT22;10495;50.922;4.760;2023-05-18T05:43:16;10.10;76.30
20672;DHT22;10495;50.922;4.760;2023-05-18T05:45:42;10.50;76.80
20672;DHT22;10495;50.922;4.760;2023-05-18T05:48:08;10.80;76.60
20672;DHT22;10495;50.922;4.760;2023-05-18T05:50:34;11.20;75.80
20672;DHT22;10495;50.922;4.760;2023-05-18T05:53:00;11.50;72.90
20672;DHT22;10495;50.922;4.760;2023-05-18T05:55:26;11.80;72.40
20672;DHT22;10495;50.922;4.760;2023-05-18T05:57:52;12.00;70.80
20672;DHT22;10495;50.922;4.760;2023-05-18T06:00:18;11.90;69.30
20672;DHT22;10495;50.922;4.760;2023-05-18T06:02:44;11.80;69.00
20672;DHT22;10495;50.922;4.760;2023-05-18T06:05:10;11.70;68.90
20672;DHT22;10495;50.922;4.760;2023-05-18T06:07:36;11.70;68.70
20672;DHT22;10495;50.922;4.760;2023-05-18T06:10:02;12.00;67.40
20672;DHT22;10495;50.922;4.760;2023-05-18T06:12:28;11.80;68.30
20672;DHT22;10495;50.922;4.760;2023-05-18T06:14:54;12.00;68.00
20672;DHT22;10495;50.922;4.760;2023-05-18T06:17:26;12.20;69.10
20672;DHT22;10495;50.922;4.760;2023-05-18T06:19:53;12.30;68.40
20672;DHT22;10495;50.922;4.760;2023-05-18T06:22:19;12.70;67.80
20672;DHT22;10495;50.922;4.760;2023-05-18T06:24:45;12.60;65.90
20672;DHT22;10495;50.922;4.760;2023-05-18T06:27:10;12.70;65.50
20672;DHT22;10495;50.922;4.760;2023-05-18T06:29:36;13.00;64.40
20672;DHT22;10495;50.922;4.760;2023-05-18T06:32:02;13.50;65.80
20672;DHT22;10495;50.922;4.760;2023-05-18T06:34:28;13.40;64.20
20672;DHT22;10495;50.922;4.760;2023-05-18T06:36:54;13.50;63.50
20672;DHT22;10495;50.922;4.760;2023-05-18T06:39:19;13.70;64.40
20672;DHT22;10495;50.922;4.760;2023-05-18T06:41:45;14.10;63.90
20672;DHT22;10495;50.922;4.760;2023-05-18T06:44:11;14.40;62.10
20672;DHT22;10495;50.922;4.760;2023-05-18T06:46:37;14.70;60.20
20672;DHT22;10495;50.922;4.760;2023-05-18T06:49:03;14.80;60.60
20672;DHT22;10495;50.922;4.760;2023-05-18T06:51:29;14.30;60.30
20672;DHT22;10495;50.922;4.760;2023-05-18T06:53:55;14.30;61.00
20672;DHT22;10495;50.922;4.760;2023-05-18T06:56:21;14.30;62.20
20672;DHT22;10495;50.922;4.760;2023-05-18T06:58:47;14.40;62.30
20672;DHT22;10495;50.922;4.760;2023-05-18T07:01:13;14.60;61.00
20672;DHT22;10495;50.922;4.760;2023-05-18T07:03:39;14.70;60.40
20672;DHT22;10495;50.922;4.760;2023-05-18T07:06:05;14.50;62.00
20672;DHT22;10495;50.922;4.760;2023-05-18T07:08:31;14.60;61.60
20672;DHT22;10495;50.922;4.760;2023-05-18T07:10:57;14.90;60.10
20672;DHT22;10495;50.922;4.760;2023-05-18T07:13:24;14.90;61.40
20672;DHT22;10495;50.922;4.760;2023-05-18T07:15:50;15.20;62.20
20672;DHT22;10495;50.922;4.760;2023-05-18T07:18:16;15.60;60.20
20672;DHT22;10495;50.922;4.760;2023-05-18T07:20:42;15.90;61.00
20672;DHT22;10495;50.922;4.760;2023-05-18T07:23:08;16.20;59.80
20672;DHT22;10495;50.922;4.760;2023-05-18T07:25:33;16.30;61.20
20672;DHT22;10495;50.922;4.760;2023-05-18T07:27:59;16.80;59.80
20672;DHT22;10495;50.922;4.760;2023-05-18T07:30:25;17.20;59.10
20672;DHT22;10495;50.922;4.760;2023-05-18T07:32:51;17.60;57.00
20672;DHT22;10495;50.922;4.760;2023-05-18T07:35:17;17.50;57.30
20672;DHT22;10495;50.922;4.760;2023-05-18T07:37:46;17.40;56.90
20672;DHT22;10495;50.922;4.760;2023-05-18T07:40:12;16.90;57.70
20672;DHT22;10495;50.922;4.760;2023-05-18T07:42:38;16.80;57.60
20672;DHT22;10495;50.922;4.760;2023-05-18T07:45:05;16.90;58.20
20672;DHT22;10495;50.922;4.760;2023-05-18T07:47:31;16.90;58.50
20672;DHT22;10495;50.922;4.760;2023-05-18T07:49:57;17.00;57.70
20672;DHT22;10495;50.922;4.760;2023-05-18T07:52:23;17.30;57.80
20672;DHT22;10495;50.922;4.760;2023-05-18T07:54:48;17.50;58.10
20672;DHT22;10495;50.922;4.760;2023-05-18T07:57:14;17.70;56.90
20672;DHT22;10495;50.922;4.760;2023-05-18T07:59:39;18.00;56.70
20672;DHT22;10495;50.922;4.760;2023-05-18T08:02:05;18.20;56.70
20672;DHT22;10495;50.922;4.760;2023-05-18T08:04:32;18.40;56.40
20672;DHT22;10495;50.922;4.760;2023-05-18T08:06:58;18.60;56.10
20672;DHT22;10495;50.922;4.760;2023-05-18T08:09:25;18.60;56.20
20672;DHT22;10495;50.922;4.760;2023-05-18T08:11:51;18.70;56.00
20672;DHT22;10495;50.922;4.760;2023-05-18T08:14:17;18.70;56.20
20672;DHT22;10495;50.922;4.760;2023-05-18T08:16:44;18.90;56.90
20672;DHT22;10495;50.922;4.760;2023-05-18T08:19:09;18.70;55.40
20672;DHT22;10495;50.922;4.760;2023-05-18T08:21:35;18.70;55.10
20672;DHT22;10495;50.922;4.760;2023-05-18T08:24:02;18.60;55.40
20672;DHT22;10495;50.922;4.760;2023-05-18T08:26:28;18.90;56.10
20672;DHT22;10495;50.922;4.760;2023-05-18T08:28:54;19.10;56.10
20672;DHT22;10495;50.922;4.760;2023-05-18T08:31:20;19.30;56.00
20672;DHT22;10495;50.922;4.760;2023-05-18T08:33:46;19.50;56.30
20672;DHT22;10495;50.922;4.760;2023-05-18T08:36:12;19.70;55.10
20672;DHT22;10495;50.922;4.760;2023-05-18T08:38:37;20.20;54.70
20672;DHT22;10495;50.922;4.760;2023-05-18T08:41:25;20.60;54.50
20672;DHT22;10495;50.922;4.760;2023-05-18T08:44:01;20.70;54.90
20672;DHT22;10495;50.922;4.760;2023-05-18T08:46:33;21.10;54.20
20672;DHT22;10495;50.922;4.760;2023-05-18T08:49:00;21.60;52.80
20672;DHT22;10495;50.922;4.760;2023-05-18T08:51:29;21.40;52.20
20672;DHT22;10495;50.922;4.760;2023-05-18T08:53:58;21.30;53.30
20672;DHT22;10495;50.922;4.760;2023-05-18T08:56:25;20.90;52.70
20672;DHT22;10495;50.922;4.760;2023-05-18T08:58:54;20.20;53.50
20672;DHT22;10495;50.922;4.760;2023-05-18T09:01:20;20.50;52.40
20672;DHT22;10495;50.922;4.760;2023-05-18T09:03:48;20.20;51.70
20672;DHT22;10495;50.922;4.760;2023-05-18T09:06:14;19.90;51.70
20672;DHT22;10495;50.922;4.760;2023-05-18T09:08:41;20.10;51.00
20672;DHT22;10495;50.922;4.760;2023-05-18T09:11:07;19.10;50.30
20672;DHT22;10495;50.922;4.760;2023-05-18T09:13:33;19.00;50.80
20672;DHT22;10495;50.922;4.760;2023-05-18T09:15:59;19.00;50.70
20672;DHT22;10495;50.922;4.760;2023-05-18T09:18:25;18.60;50.40
20672;DHT22;10495;50.922;4.760;2023-05-18T09:20:50;18.50;50.40
20672;DHT22;10495;50.922;4.760;2023-05-18T09:23:16;18.70;51.40
20672;DHT22;10495;50.922;4.760;2023-05-18T09:25:45;18.90;51.60
20672;DHT22;10495;50.922;4.760;2023-05-18T09:28:25;19.30;52.10
20672;DHT22;10495;50.922;4.760;2023-05-18T09:30:51;20.10;50.70
20672;DHT22;10495;50.922;4.760;2023-05-18T09:33:19;20.10;49.70
20672;DHT22;10495;50.922;4.760;2023-05-18T09:35:50;20.10;50.40
20672;DHT22;10495;50.922;4.760;2023-05-18T09:38:18;20.10;50.40
20672;DHT22;10495;50.922;4.760;2023-05-18T09:40:48;19.80;50.30
20672;DHT22;10495;50.922;4.760;2023-05-18T09:43:15;19.90;50.10
20672;DHT22;10495;50.922;4.760;2023-05-18T09:45:43;20.00;49.50
20672;DHT22;10495;50.922;4.760;2023-05-18T09:48:09;20.10;49.90
20672;DHT22;10495;50.922;4.760;2023-05-18T09:50:36;19.60;49.50
20672;DHT22;10495;50.922;4.760;2023-05-18T09:53:06;19.30;50.00
20672;DHT22;10495;50.922;4.760;2023-05-18T09:56:00;19.70;50.10
20672;DHT22;10495;50.922;4.760;2023-05-18T09:58:21;19.80;49.60
20672;DHT22;10495;50.922;4.760;2023-05-18T10:00:48;20.10;49.30
20672;DHT22;10495;50.922;4.760;2023-05-18T10:03:23;19.80;49.20
20672;DHT22;10495;50.922;4.760;2023-05-18T10:05:50;19.90;49.80
20672;DHT22;10495;50.922;4.760;2023-05-18T10:08:16;20.20;49.60
20672;DHT22;10495;50.922;4.760;2023-05-18T10:10:46;20.50;48.50
20672;DHT22;10495;50.922;4.760;2023-05-18T10:13:14;20.50;49.10
20672;DHT22;10495;50.922;4.760;2023-05-18T10:15:46;20.40;49.50
20672;DHT22;10495;50.922;4.760;2023-05-18T10:18:19;20.80;49.20
20672;DHT22;10495;50.922;4.760;2023-05-18T10:20:46;20.90;48.30
20672;DHT22;10495;50.922;4.760;2023-05-18T10:23:12;20.90;48.80
20672;DHT22;10495;50.922;4.760;2023-05-18T10:25:40;21.00;48.80
20672;DHT22;10495;50.922;4.760;2023-05-18T10:28:08;20.70;48.70
20672;DHT22;10495;50.922;4.760;2023-05-18T10:30:35;20.10;49.60
20672;DHT22;10495;50.922;4.760;2023-05-18T10:33:01;19.40;49.70
20672;DHT22;10495;50.922;4.760;2023-05-18T10:35:29;19.20;49.60
20672;DHT22;10495;50.922;4.760;2023-05-18T10:37:58;19.10;50.30
20672;DHT22;10495;50.922;4.760;2023-05-18T10:40:26;18.90;50.70
20672;DHT22;10495;50.922;4.760;2023-05-18T10:42:56;19.00;50.00
20672;DHT22;10495;50.922;4.760;2023-05-18T10:45:22;18.80;50.00
20672;DHT22;10495;50.922;4.760;2023-05-18T10:47:49;18.70;50.00
20672;DHT22;10495;50.922;4.760;2023-05-18T10:50:22;18.40;49.70
20672;DHT22;10495;50.922;4.760;2023-05-18T10:52:49;18.20;50.60
20672;DHT22;10495;50.922;4.760;2023-05-18T10:55:16;18.00;50.30
20672;DHT22;10495;50.922;4.760;2023-05-18T10:57:49;18.10;50.00
20672;DHT22;10495;50.922;4.760;2023-05-18T11:00:17;18.00;50.50
20672;DHT22;10495;50.922;4.760;2023-05-18T11:02:43;17.90;50.60
20672;DHT22;10495;50.922;4.760;2023-05-18T11:05:09;18.10;50.30
20672;DHT22;10495;50.922;4.760;2023-05-18T11:07:36;17.90;52.50
20672;DHT22;10495;50.922;4.760;2023-05-18T11:10:07;18.10;50.60
20672;DHT22;10495;50.922;4.760;2023-05-18T11:12:36;18.30;50.30
20672;DHT22;10495;50.922;4.760;2023-05-18T11:15:03;18.30;50.30
20672;DHT22;10495;50.922;4.760;2023-05-18T11:17:29;18.20;50.60
20672;DHT22;10495;50.922;4.760;2023-05-18T11:27:51;18.60;48.70
20672;DHT22;10495;50.922;4.760;2023-05-18T11:33:14;18.50;49.50
20672;DHT22;10495;50.922;4.760;2023-05-18T11:39:18;18.30;49.20
20672;DHT22;10495;50.922;4.760;2023-05-18T11:41:39;17.80;49.60
20672;DHT22;10495;50.922;4.760;2023-05-18T11:49:16;18.10;50.10
20672;DHT22;10495;50.922;4.760;2023-05-18T11:54:37;17.50;50.00
20672;DHT22;10495;50.922;4.760;2023-05-18T11:57:03;17.50;50.70
20672;DHT22;10495;50.922;4.760;2023-05-18T11:59:41;17.60;50.50
20672;DHT22;10495;50.922;4.760;2023-05-18T12:02:08;17.60;50.40
20672;DHT22;10495;50.922;4.760;2023-05-18T12:04:58;17.60;51.20
20672;DHT22;10495;50.922;4.760;2023-05-18T12:07:28;17.90;50.20
20672;DHT22;10495;50.922;4.760;2023-05-18T12:09:58;17.90;50.70
20672;DHT22;10495;50.922;4.760;2023-05-18T12:12:26;18.20;50.50
20672;DHT22;10495;50.922;4.760;2023-05-18T12:14:56;18.10;50.10
20672;DHT22;10495;50.922;4.760;2023-05-18T12:17:22;17.70;50.40
20672;DHT22;10495;50.922;4.760;2023-05-18T12:19:49;17.80;50.30
20672;DHT22;10495;50.922;4.760;2023-05-18T12:22:15;17.90;50.60
20672;DHT22;10495;50.922;4.760;2023-05-18T12:24:42;18.00;50.60
20672;DHT22;10495;50.922;4.760;2023-05-18T12:27:10;18.00;50.40
20672;DHT22;10495;50.922;4.760;2023-05-18T12:29:40;18.20;50.40
20672;DHT22;10495;50.922;4.760;2023-05-18T12:32:08;18.10;50.60
20672;DHT22;10495;50.922;4.760;2023-05-18T12:34:35;18.30;49.30
20672;DHT22;10495;50.922;4.760;2023-05-18T12:37:01;17.90;50.30
20672;DHT22;10495;50.922;4.760;2023-05-18T12:39:27;18.10;51.00
20672;DHT22;10495;50.922;4.760;2023-05-18T12:41:53;18.10;50.10
20672;DHT22;10495;50.922;4.760;2023-05-18T12:44:19;17.90;51.10
20672;DHT22;10495;50.922;4.760;2023-05-18T12:46:45;17.90;51.10
20672;DHT22;10495;50.922;4.760;2023-05-18T12:49:11;18.20;50.60
20672;DHT22;10495;50.922;4.760;2023-05-18T12:51:38;18.10;50.60
20672;DHT22;10495;50.922;4.760;2023-05-18T12:54:05;18.20;50.50
20672;DHT22;10495;50.922;4.760;2023-05-18T12:56:53;18.10;50.50
20672;DHT22;10495;50.922;4.760;2023-05-18T12:59:25;18.20;50.70
20672;DHT22;10495;50.922;4.760;2023-05-18T13:01:54;17.90;50.80
20672;DHT22;10495;50.922;4.760;2023-05-18T13:04:19;17.90;50.70
20672;DHT22;10495;50.922;4.760;2023-05-18T13:06:45;18.10;50.60
20672;DHT22;10495;50.922;4.760;2023-05-18T13:09:12;17.90;50.00
20672;DHT22;10495;50.922;4.760;2023-05-18T13:11:38;18.00;50.40
20672;DHT22;10495;50.922;4.760;2023-05-18T13:14:08;17.90;51.10
20672;DHT22;10495;50.922;4.760;2023-05-18T13:16:38;18.00;51.90
20672;DHT22;10495;50.922;4.760;2023-05-18T13:19:07;18.10;50.40
20672;DHT22;10495;50.922;4.760;2023-05-18T13:21:33;18.00;49.90
20672;DHT22;10495;50.922;4.760;2023-05-18T13:24:00;18.10;50.00
20672;DHT22;10495;50.922;4.760;2023-05-18T13:26:26;17.90;50.40
20672;DHT22;10495;50.922;4.760;2023-05-18T13:28:53;17.80;50.90
20672;DHT22;10495;50.922;4.760;2023-05-18T13:31:19;17.90;50.80
20672;DHT22;10495;50.922;4.760;2023-05-18T13:33:45;18.30;50.60
20672;DHT22;10495;50.922;4.760;2023-05-18T13:36:11;18.10;50.20
20672;DHT22;10495;50.922;4.760;2023-05-18T13:38:37;18.10;50.00
20672;DHT22;10495;50.922;4.760;2023-05-18T13:41:04;18.20;49.80
20672;DHT22;10495;50.922;4.760;2023-05-18T13:43:33;18.30;50.50
20672;DHT22;10495;50.922;4.760;2023-05-18T13:45:59;18.30;49.80
20672;DHT22;10495;50.922;4.760;2023-05-18T13:48:25;18.20;50.60
20672;DHT22;10495;50.922;4.760;2023-05-18T13:50:53;18.30;50.30
20672;DHT22;10495;50.922;4.760;2023-05-18T13:53:19;18.20;51.00
20672;DHT22;10495;50.922;4.760;2023-05-18T13:55:45;18.10;51.40
20672;DHT22;10495;50.922;4.760;2023-05-18T13:58:10;18.00;51.70
20672;DHT22;10495;50.922;4.760;2023-05-18T14:00:36;18.00;51.20
20672;DHT22;10495;50.922;4.760;2023-05-18T14:03:02;18.10;51.00
20672;DHT22;10495;50.922;4.760;2023-05-18T14:05:28;18.00;51.30
20672;DHT22;10495;50.922;4.760;2023-05-18T14:07:54;18.20;51.00
20672;DHT22;10495;50.922;4.760;2023-05-18T14:10:21;18.10;49.90
20672;DHT22;10495;50.922;4.760;2023-05-18T14:12:47;17.90;50.60
20672;DHT22;10495;50.922;4.760;2023-05-18T14:15:12;18.00;50.40
20672;DHT22;10495;50.922;4.760;2023-05-18T14:17:39;17.90;50.90
20672;DHT22;10495;50.922;4.760;2023-05-18T14:20:05;18.10;50.50
20672;DHT22;10495;50.922;4.760;2023-05-18T14:22:32;18.00;50.60
20672;DHT22;10495;50.922;4.760;2023-05-18T14:24:58;17.80;51.40
20672;DHT22;10495;50.922;4.760;2023-05-18T14:27:23;17.90;51.30
20672;DHT22;10495;50.922;4.760;2023-05-18T14:29:50;18.00;51.10
20672;DHT22;10495;50.922;4.760;2023-05-18T14:32:16;18.20;50.50
20672;DHT22;10495;50.922;4.760;2023-05-18T14:34:41;18.00;50.70
20672;DHT22;10495;50.922;4.760;2023-05-18T14:37:07;17.90;51.10
20672;DHT22;10495;50.922;4.760;2023-05-18T14:39:33;18.00;51.80
20672;DHT22;10495;50.922;4.760;2023-05-18T14:41:58;18.20;51.40
20672;DHT22;10495;50.922;4.760;2023-05-18T14:44:24;18.50;51.30
20672;DHT22;10495;50.922;4.760;2023-05-18T14:46:51;18.00;51.40
20672;DHT22;10495;50.922;4.760;2023-05-18T14:49:16;17.90;51.30
20672;DHT22;10495;50.922;4.760;2023-05-18T14:51:42;18.20;52.00
20672;DHT22;10495;50.922;4.760;2023-05-18T14:54:08;18.20;50.20
20672;DHT22;10495;50.922;4.760;2023-05-18T14:56:33;18.50;49.30
20672;DHT22;10495;50.922;4.760;2023-05-18T14:58:59;18.80;48.90
20672;DHT22;10495;50.922;4.760;2023-05-18T15:01:25;18.80;49.60
20672;DHT22;10495;50.922;4.760;2023-05-18T15:03:50;18.30;49.90
20672;DHT22;10495;50.922;4.760;2023-05-18T15:06:16;18.20;49.90
20672;DHT22;10495;50.922;4.760;2023-05-18T15:08:41;18.40;49.70
20672;DHT22;10495;50.922;4.760;2023-05-18T15:11:07;18.80;49.50
20672;DHT22;10495;50.922;4.760;2023-05-18T15:13:33;18.80;49.80
20672;DHT22;10495;50.922;4.760;2023-05-18T15:15:58;18.60;50.20
20672;DHT22;10495;50.922;4.760;2023-05-18T15:18:24;18.70;49.30
20672;DHT22;10495;50.922;4.760;2023-05-18T15:20:50;18.70;49.60
20672;DHT22;10495;50.922;4.760;2023-05-18T15:23:15;18.30;49.80
20672;DHT22;10495;50.922;4.760;2023-05-18T15:25:41;18.50;50.00
20672;DHT22;10495;50.922;4.760;2023-05-18T15:28:07;18.40;49.70
20672;DHT22;10495;50.922;4.760;2023-05-18T15:30:33;18.30;49.90
20672;DHT22;10495;50.922;4.760;2023-05-18T15:32:59;18.10;49.90
20672;DHT22;10495;50.922;4.760;2023-05-18T15:35:28;18.10;50.20
20672;DHT22;10495;50.922;4.760;2023-05-18T15:37:54;18.10;50.60
20672;DHT22;10495;50.922;4.760;2023-05-18T15:40:20;18.30;49.80
20672;DHT22;10495;50.922;4.760;2023-05-18T15:42:46;18.50;49.20
20672;DHT22;10495;50.922;4.760;2023-05-18T15:45:12;18.70;49.00
20672;DHT22;10495;50.922;4.760;2023-05-18T15:47:38;18.50;49.60
20672;DHT22;10495;50.922;4.760;2023-05-18T15:50:04;18.20;50.20
20672;DHT22;10495;50.922;4.760;2023-05-18T15:52:30;18.50;49.00
20672;DHT22;10495;50.922;4.760;2023-05-18T15:54:55;18.80;49.20
20672;DHT22;10495;50.922;4.760;2023-05-18T15:57:21;18.70;49.20
20672;DHT22;10495;50.922;4.760;2023-05-18T15:59:47;18.40;49.30
20672;DHT22;10495;50.922;4.760;2023-05-18T16:02:13;18.30;50.20
20672;DHT22;10495;50.922;4.760;2023-05-18T16:04:39;18.30;50.30